CheckWX is a tool to help pilots better visualize weather data.  It is not intended as a substitute for an official pre-flight weather briefing.

17:08:31 UTC

FQPB METAR
Pemba Airport
Pemba / Porto Amelia, Mozambique
Current

1 hour ago

FQPB 211600Z 17015KT 9999 FEW020 25/17 Q1018
Observed
Jul-21 @ 16:00 UTC
Wind
  • 170° at 15 KTS
Visibility
10,000+ meters
Flight Rules
VFR
Cloud Levels
  • Few at 2,000' AGL
Temperature
25°C / 77°F
Dewpoint
17°C / 63°F
Humidity
61%
Altimeter
30.06" Hg
Pressure
1017.92 hPa
Previous

4 hours ago

FQPB 211300Z 15013KT 9999 FEW020 27/18 Q1017
Observed
Jul-21 @ 13:00 UTC
Wind
  • 150° at 13 KTS
Visibility
10,000+ meters
Flight Rules
VFR
Cloud Levels
  • Few at 2,000' AGL
Temperature
27°C / 81°F
Dewpoint
18°C / 64°F
Heat Index
28°C / 83°F
Humidity
58%
Altimeter
30.03" Hg
Pressure
1016.92 hPa
Previous

5 hours ago

FQPB 211200Z 15014KT 9999 FEW020 28/16 Q1017
Observed
Jul-21 @ 12:00 UTC
Wind
  • 150° at 14 KTS
Visibility
10,000+ meters
Flight Rules
VFR
Cloud Levels
  • Few at 2,000' AGL
Temperature
28°C / 82°F
Dewpoint
16°C / 61°F
Heat Index
28°C / 82°F
Humidity
48%
Altimeter
30.03" Hg
Pressure
1016.92 hPa